sensor_id;sensor_type;location;lat;lon;timestamp;pressure;altitude;pressure_sealevel;temperature;humidity
71697;BME280;68167;59.120;37.898;2023-04-22T00:00:51;99738.16;;;6.61;54.38
71697;BME280;68167;59.120;37.898;2023-04-22T00:03:20;99680.16;;;6.32;54.60
71697;BME280;68167;59.120;37.898;2023-04-22T00:05:49;99638.31;;;6.05;53.68
71697;BME280;68167;59.120;37.898;2023-04-22T00:08:16;99698.41;;;6.45;54.07
71697;BME280;68167;59.120;37.898;2023-04-22T00:10:42;99684.03;;;6.41;53.73
71697;BME280;68167;59.120;37.898;2023-04-22T00:13:08;99678.66;;;6.36;54.21
71697;BME280;68167;59.120;37.898;2023-04-22T00:15:35;99635.00;;;6.10;54.33
71697;BME280;68167;59.120;37.898;2023-04-22T00:18:01;99722.75;;;6.58;54.00
71697;BME280;68167;59.120;37.898;2023-04-22T00:20:27;99735.84;;;6.65;54.32
71697;BME280;68167;59.120;37.898;2023-04-22T00:22:54;99680.03;;;6.26;53.85
71697;BME280;68167;59.120;37.898;2023-04-22T00:25:21;99710.81;;;6.44;53.95
71697;BME280;68167;59.120;37.898;2023-04-22T00:27:47;99693.72;;;6.35;54.75
71697;BME280;68167;59.120;37.898;2023-04-22T00:30:14;99730.09;;;6.56;54.29
71697;BME280;68167;59.120;37.898;2023-04-22T00:32:40;99740.00;;;6.61;54.34
71697;BME280;68167;59.120;37.898;2023-04-22T00:35:07;99731.25;;;6.60;54.12
71697;BME280;68167;59.120;37.898;2023-04-22T00:37:33;99691.63;;;6.37;53.83
71697;BME280;68167;59.120;37.898;2023-04-22T00:40:00;99681.41;;;6.29;53.91
71697;BME280;68167;59.120;37.898;2023-04-22T00:42:27;99725.28;;;6.53;54.03
71697;BME280;68167;59.120;37.898;2023-04-22T00:44:54;99727.69;;;6.55;54.38
71697;BME280;68167;59.120;37.898;2023-04-22T00:47:21;99675.66;;;6.20;54.71
71697;BME280;68167;59.120;37.898;2023-04-22T00:49:52;99732.41;;;6.53;54.70
71697;BME280;68167;59.120;37.898;2023-04-22T00:52:19;99674.88;;;6.20;55.00
71697;BME280;68167;59.120;37.898;2023-04-22T00:54:46;99722.88;;;6.52;55.07
71697;BME280;68167;59.120;37.898;2023-04-22T00:57:14;99664.63;;;6.12;54.68
71697;BME280;68167;59.120;37.898;2023-04-22T00:59:41;99721.88;;;6.41;54.95
71697;BME280;68167;59.120;37.898;2023-04-22T01:02:08;99696.00;;;6.20;54.33
71697;BME280;68167;59.120;37.898;2023-04-22T01:04:35;99628.22;;;5.79;54.62
71697;BME280;68167;59.120;37.898;2023-04-22T01:07:01;99707.16;;;6.34;55.08
71697;BME280;68167;59.120;37.898;2023-04-22T01:09:27;99707.97;;;6.34;55.18
71697;BME280;68167;59.120;37.898;2023-04-22T01:11:54;99710.72;;;6.39;54.66
71697;BME280;68167;59.120;37.898;2023-04-22T01:14:21;99648.66;;;6.07;55.15
71697;BME280;68167;59.120;37.898;2023-04-22T01:16:49;99708.31;;;6.38;55.06
71697;BME280;68167;59.120;37.898;2023-04-22T01:19:16;99652.56;;;6.04;54.95
71697;BME280;68167;59.120;37.898;2023-04-22T01:21:42;99713.00;;;6.36;54.82
71697;BME280;68167;59.120;37.898;2023-04-22T01:24:10;99682.22;;;6.18;55.63
71697;BME280;68167;59.120;37.898;2023-04-22T01:26:37;99613.97;;;5.68;54.94
71697;BME280;68167;59.120;37.898;2023-04-22T01:29:04;99680.16;;;6.08;55.81
71697;BME280;68167;59.120;37.898;2023-04-22T01:31:31;99713.94;;;6.30;55.46
71697;BME280;68167;59.120;37.898;2023-04-22T01:33:58;99687.72;;;6.16;55.10
71697;BME280;68167;59.120;37.898;2023-04-22T01:36:25;99696.34;;;6.12;55.08
71697;BME280;68167;59.120;37.898;2023-04-22T01:38:52;99693.25;;;6.03;55.35
71697;BME280;68167;59.120;37.898;2023-04-22T01:41:19;99643.38;;;5.72;55.93
71697;BME280;68167;59.120;37.898;2023-04-22T01:43:46;99701.94;;;5.92;55.81
71697;BME280;68167;59.120;37.898;2023-04-22T01:46:12;99667.56;;;5.57;56.73
71697;BME280;68167;59.120;37.898;2023-04-22T01:48:39;99706.06;;;5.76;56.86
71697;BME280;68167;59.120;37.898;2023-04-22T01:51:05;99688.59;;;5.63;56.81
71697;BME280;68167;59.120;37.898;2023-04-22T01:53:32;99711.44;;;5.70;57.18
71697;BME280;68167;59.120;37.898;2023-04-22T01:55:58;99703.84;;;5.61;56.97
71697;BME280;68167;59.120;37.898;2023-04-22T01:58:28;99702.81;;;5.62;57.10
71697;BME280;68167;59.120;37.898;2023-04-22T02:00:55;99657.38;;;5.30;57.56
71697;BME280;68167;59.120;37.898;2023-04-22T02:03:22;99600.28;;;4.94;56.98
71697;BME280;68167;59.120;37.898;2023-04-22T02:05:48;99664.28;;;5.32;57.07
71697;BME280;68167;59.120;37.898;2023-04-22T02:08:15;99705.41;;;5.51;57.33
71697;BME280;68167;59.120;37.898;2023-04-22T02:10:44;99690.22;;;5.35;58.53
71697;BME280;68167;59.120;37.898;2023-04-22T02:13:10;99674.34;;;5.23;57.92
71697;BME280;68167;59.120;37.898;2023-04-22T02:15:37;99643.19;;;5.02;58.45
71697;BME280;68167;59.120;37.898;2023-04-22T02:18:05;99703.19;;;5.36;58.28
71697;BME280;68167;59.120;37.898;2023-04-22T02:20:33;99653.09;;;5.06;58.49
71697;BME280;68167;59.120;37.898;2023-04-22T02:22:59;99674.91;;;5.25;57.93
71697;BME280;68167;59.120;37.898;2023-04-22T02:25:27;99689.63;;;5.33;59.08
71697;BME280;68167;59.120;37.898;2023-04-22T02:27:53;99655.88;;;5.23;58.38
71697;BME280;68167;59.120;37.898;2023-04-22T02:30:20;99685.09;;;5.51;58.85
71697;BME280;68167;59.120;37.898;2023-04-22T02:32:46;99666.72;;;5.45;58.33
71697;BME280;68167;59.120;37.898;2023-04-22T02:35:13;99693.84;;;5.63;58.69
71697;BME280;68167;59.120;37.898;2023-04-22T02:37:41;99697.47;;;5.81;57.71
71697;BME280;68167;59.120;37.898;2023-04-22T02:40:07;99694.47;;;5.89;58.28
71697;BME280;68167;59.120;37.898;2023-04-22T02:42:34;99689.88;;;5.84;58.13
71697;BME280;68167;59.120;37.898;2023-04-22T02:45:01;99691.94;;;5.82;57.86
71697;BME280;68167;59.120;37.898;2023-04-22T02:47:31;99666.22;;;5.78;56.98
71697;BME280;68167;59.120;37.898;2023-04-22T02:49:58;99695.31;;;6.01;57.23
71697;BME280;68167;59.120;37.898;2023-04-22T02:52:24;99595.47;;;5.45;57.28
71697;BME280;68167;59.120;37.898;2023-04-22T02:54:51;99654.25;;;5.87;56.95
71697;BME280;68167;59.120;37.898;2023-04-22T02:57:17;99652.91;;;5.84;56.72
71697;BME280;68167;59.120;37.898;2023-04-22T02:59:44;99662.44;;;5.97;56.91
71697;BME280;68167;59.120;37.898;2023-04-22T03:02:11;99642.34;;;5.96;57.07
71697;BME280;68167;59.120;37.898;2023-04-22T03:05:02;99670.59;;;6.19;56.73
71697;BME280;68167;59.120;37.898;2023-04-22T03:07:30;99648.66;;;6.07;56.87
71697;BME280;68167;59.120;37.898;2023-04-22T03:09:57;99631.78;;;6.08;57.21
71697;BME280;68167;59.120;37.898;2023-04-22T03:12:24;99677.38;;;6.38;57.00
71697;BME280;68167;59.120;37.898;2023-04-22T03:14:52;99674.28;;;6.41;57.51
71697;BME280;68167;59.120;37.898;2023-04-22T03:17:20;99686.34;;;6.49;57.18
71697;BME280;68167;59.120;37.898;2023-04-22T03:19:46;99682.41;;;6.51;57.57
71697;BME280;68167;59.120;37.898;2023-04-22T03:22:14;99634.19;;;6.21;56.92
71697;BME280;68167;59.120;37.898;2023-04-22T03:24:40;99671.59;;;6.53;56.82
71697;BME280;68167;59.120;37.898;2023-04-22T03:27:11;99639.69;;;6.31;57.26
71697;BME280;68167;59.120;37.898;2023-04-22T03:29:39;99622.91;;;6.25;57.08
71697;BME280;68167;59.120;37.898;2023-04-22T03:32:05;99678.94;;;6.63;56.76
71697;BME280;68167;59.120;37.898;2023-04-22T03:34:33;99648.19;;;6.45;56.69
71697;BME280;68167;59.120;37.898;2023-04-22T03:37:00;99681.69;;;6.68;57.08
71697;BME280;68167;59.120;37.898;2023-04-22T03:39:26;99634.06;;;6.39;57.27
71697;BME280;68167;59.120;37.898;2023-04-22T03:41:53;99634.16;;;6.44;57.10
71697;BME280;68167;59.120;37.898;2023-04-22T03:44:19;99690.53;;;6.73;57.81
71697;BME280;68167;59.120;37.898;2023-04-22T03:46:47;99636.47;;;6.41;58.25
71697;BME280;68167;59.120;37.898;2023-04-22T03:49:19;99693.50;;;6.77;58.20
71697;BME280;68167;59.120;37.898;2023-04-22T03:51:46;99632.69;;;6.37;58.29
71697;BME280;68167;59.120;37.898;2023-04-22T03:54:17;99689.50;;;6.74;58.69
71697;BME280;68167;59.120;37.898;2023-04-22T03:56:48;99666.28;;;6.65;58.95
71697;BME280;68167;59.120;37.898;2023-04-22T03:59:16;99695.88;;;6.90;58.64
71697;BME280;68167;59.120;37.898;2023-04-22T04:01:45;99699.09;;;6.92;57.75
71697;BME280;68167;59.120;37.898;2023-04-22T04:04:12;99643.38;;;6.70;57.67
71697;BME280;68167;59.120;37.898;2023-04-22T04:06:50;99643.72;;;6.74;57.82
71697;BME280;68167;59.120;37.898;2023-04-22T04:09:16;99652.53;;;6.91;58.00
71697;BME280;68167;59.120;37.898;2023-04-22T04:11:43;99697.69;;;7.30;57.87
71697;BME280;68167;59.120;37.898;2023-04-22T04:14:10;99687.66;;;7.32;57.82
71697;BME280;68167;59.120;37.898;2023-04-22T04:16:43;99698.34;;;7.37;57.92
71697;BME280;68167;59.120;37.898;2023-04-22T04:19:15;99663.09;;;7.19;57.81
71697;BME280;68167;59.120;37.898;2023-04-22T04:21:42;99699.34;;;7.47;57.14
71697;BME280;68167;59.120;37.898;2023-04-22T04:24:09;99710.34;;;7.56;57.46
71697;BME280;68167;59.120;37.898;2023-04-22T04:26:41;99611.75;;;7.04;57.27
71697;BME280;68167;59.120;37.898;2023-04-22T04:29:13;99709.91;;;7.76;57.33
71697;BME280;68167;59.120;37.898;2023-04-22T04:31:43;99665.22;;;7.51;56.86
71697;BME280;68167;59.120;37.898;2023-04-22T04:34:10;99706.56;;;7.85;57.32
71697;BME280;68167;59.120;37.898;2023-04-22T04:36:37;99636.44;;;7.54;56.55
71697;BME280;68167;59.120;37.898;2023-04-22T04:39:18;99672.44;;;7.89;56.61
71697;BME280;68167;59.120;37.898;2023-04-22T04:41:46;99700.22;;;8.20;56.17
71697;BME280;68167;59.120;37.898;2023-04-22T04:44:15;99664.09;;;8.14;56.00
71697;BME280;68167;59.120;37.898;2023-04-22T04:46:42;99676.88;;;8.34;54.89
71697;BME280;68167;59.120;37.898;2023-04-22T04:49:09;99666.00;;;8.35;54.65
71697;BME280;68167;59.120;37.898;2023-04-22T04:51:50;99694.22;;;8.63;54.56
71697;BME280;68167;59.120;37.898;2023-04-22T04:54:17;99691.50;;;8.58;54.43
71697;BME280;68167;59.120;37.898;2023-04-22T04:56:44;99696.69;;;8.70;53.98
71697;BME280;68167;59.120;37.898;2023-04-22T04:59:10;99632.56;;;8.34;53.53
71697;BME280;68167;59.120;37.898;2023-04-22T05:01:38;99720.72;;;9.02;53.85
71697;BME280;68167;59.120;37.898;2023-04-22T05:04:08;99660.09;;;8.72;53.14
71697;BME280;68167;59.120;37.898;2023-04-22T05:06:38;99674.41;;;8.93;53.27
71697;BME280;68167;59.120;37.898;2023-04-22T05:09:04;99689.97;;;9.11;52.59
71697;BME280;68167;59.120;37.898;2023-04-22T05:11:34;99675.88;;;9.05;52.32
71697;BME280;68167;59.120;37.898;2023-04-22T05:14:05;99660.44;;;9.02;52.67
71697;BME280;68167;59.120;37.898;2023-04-22T05:16:36;99574.75;;;8.58;52.03
71697;BME280;68167;59.120;37.898;2023-04-22T05:19:03;99673.16;;;9.27;52.16
71697;BME280;68167;59.120;37.898;2023-04-22T05:21:32;99647.16;;;9.29;52.86
71697;BME280;68167;59.120;37.898;2023-04-22T05:23:59;99704.69;;;9.72;52.62
71697;BME280;68167;59.120;37.898;2023-04-22T05:26:26;99693.03;;;9.83;52.63
71697;BME280;68167;59.120;37.898;2023-04-22T05:28:53;99692.88;;;9.95;52.66
71697;BME280;68167;59.120;37.898;2023-04-22T05:31:21;99682.81;;;10.02;52.35
71697;BME280;68167;59.120;37.898;2023-04-22T05:33:47;99649.25;;;9.91;51.79
71697;BME280;68167;59.120;37.898;2023-04-22T05:36:14;99654.13;;;10.04;51.66
71697;BME280;68167;59.120;37.898;2023-04-22T05:38:42;99688.66;;;10.31;52.12
71697;BME280;68167;59.120;37.898;2023-04-22T05:41:08;99652.34;;;10.15;51.52
71697;BME280;68167;59.120;37.898;2023-04-22T05:43:35;99657.75;;;10.25;51.65
71697;BME280;68167;59.120;37.898;2023-04-22T05:46:10;99685.84;;;10.58;51.22
71697;BME280;68167;59.120;37.898;2023-04-22T05:48:39;99633.06;;;10.35;50.88
71697;BME280;68167;59.120;37.898;2023-04-22T05:51:09;99642.44;;;10.52;50.81
71697;BME280;68167;59.120;37.898;2023-04-22T05:53:36;99672.88;;;10.77;51.19
71697;BME280;68167;59.120;37.898;2023-04-22T05:56:02;99651.03;;;10.70;50.46
71697;BME280;68167;59.120;37.898;2023-04-22T05:58:29;99694.00;;;11.09;49.91
71697;BME280;68167;59.120;37.898;2023-04-22T06:01:09;99700.44;;;11.23;50.22
71697;BME280;68167;59.120;37.898;2023-04-22T06:04:06;99676.47;;;11.23;50.01
71697;BME280;68167;59.120;37.898;2023-04-22T06:06:35;99685.81;;;11.36;49.63
71697;BME280;68167;59.120;37.898;2023-04-22T06:09:02;99652.25;;;11.30;49.23
71697;BME280;68167;59.120;37.898;2023-04-22T06:11:28;99669.84;;;11.46;48.72
71697;BME280;68167;59.120;37.898;2023-04-22T06:13:55;99687.47;;;11.67;47.87
71697;BME280;68167;59.120;37.898;2023-04-22T06:16:22;99675.47;;;11.70;47.66
71697;BME280;68167;59.120;37.898;2023-04-22T06:18:49;99636.81;;;11.52;47.36
71697;BME280;68167;59.120;37.898;2023-04-22T06:21:15;99683.22;;;11.92;46.61
71697;BME280;68167;59.120;37.898;2023-04-22T06:23:42;99676.53;;;11.94;46.62
71697;BME280;68167;59.120;37.898;2023-04-22T06:26:09;99682.66;;;12.10;45.92
71697;BME280;68167;59.120;37.898;2023-04-22T06:28:36;99675.72;;;12.19;45.46
71697;BME280;68167;59.120;37.898;2023-04-22T06:31:09;99626.66;;;11.95;44.88
71697;BME280;68167;59.120;37.898;2023-04-22T06:33:36;99600.00;;;11.84;44.20
71697;BME280;68167;59.120;37.898;2023-04-22T06:36:02;99669.00;;;12.37;44.09
71697;BME280;68167;59.120;37.898;2023-04-22T06:38:31;99645.81;;;12.27;44.30
71697;BME280;68167;59.120;37.898;2023-04-22T06:41:27;99644.41;;;12.40;43.41
71697;BME280;68167;59.120;37.898;2023-04-22T06:43:58;99602.06;;;12.18;43.40
71697;BME280;68167;59.120;37.898;2023-04-22T06:46:51;99635.59;;;12.49;43.24
71697;BME280;68167;59.120;37.898;2023-04-22T06:49:47;99641.97;;;12.53;42.97
71697;BME280;68167;59.120;37.898;2023-04-22T06:52:36;99659.28;;;12.71;42.86
71697;BME280;68167;59.120;37.898;2023-04-22T06:55:03;99661.38;;;12.79;42.33
71697;BME280;68167;59.120;37.898;2023-04-22T06:57:32;99619.28;;;12.51;41.94
71697;BME280;68167;59.120;37.898;2023-04-22T06:59:59;99669.09;;;12.86;41.10
71697;BME280;68167;59.120;37.898;2023-04-22T07:02:27;99684.06;;;12.87;41.08
71697;BME280;68167;59.120;37.898;2023-04-22T07:04:53;99632.06;;;12.59;40.53
71697;BME280;68167;59.120;37.898;2023-04-22T07:07:20;99617.38;;;12.62;40.78
71697;BME280;68167;59.120;37.898;2023-04-22T07:09:46;99625.88;;;12.74;40.67
71697;BME280;68167;59.120;37.898;2023-04-22T07:12:13;99671.63;;;13.16;40.18
71697;BME280;68167;59.120;37.898;2023-04-22T07:14:43;99615.63;;;12.91;39.99
71697;BME280;68167;59.120;37.898;2023-04-22T07:17:10;99657.88;;;13.33;40.10
71697;BME280;68167;59.120;37.898;2023-04-22T07:19:38;99644.53;;;13.33;40.22
71697;BME280;68167;59.120;37.898;2023-04-22T07:22:04;99627.13;;;13.36;39.33
71697;BME280;68167;59.120;37.898;2023-04-22T07:24:32;99647.78;;;13.64;39.58
71697;BME280;68167;59.120;37.898;2023-04-22T07:26:58;99618.38;;;13.59;39.14
71697;BME280;68167;59.120;37.898;2023-04-22T07:29:26;99619.25;;;13.78;38.92
71697;BME280;68167;59.120;37.898;2023-04-22T07:31:53;99641.53;;;14.03;38.16
71697;BME280;68167;59.120;37.898;2023-04-22T07:34:19;99618.00;;;14.00;38.60
71697;BME280;68167;59.120;37.898;2023-04-22T07:36:46;99678.97;;;14.32;38.18
71697;BME280;68167;59.120;37.898;2023-04-22T07:39:13;99642.69;;;14.21;37.94
71697;BME280;68167;59.120;37.898;2023-04-22T07:41:39;99614.44;;;14.09;38.51
71697;BME280;68167;59.120;37.898;2023-04-22T07:44:06;99612.81;;;14.08;37.51
71697;BME280;68167;59.120;37.898;2023-04-22T07:46:32;99599.44;;;14.08;37.09
71697;BME280;68167;59.120;37.898;2023-04-22T07:48:59;99615.34;;;14.24;37.23
71697;BME280;68167;59.120;37.898;2023-04-22T07:51:26;99642.97;;;14.67;36.69
71697;BME280;68167;59.120;37.898;2023-04-22T07:53:52;99643.09;;;14.80;36.15
71697;BME280;68167;59.120;37.898;2023-04-22T07:56:19;99588.78;;;14.51;36.53
71697;BME280;68167;59.120;37.898;2023-04-22T07:58:46;99599.88;;;14.63;36.72
71697;BME280;68167;59.120;37.898;2023-04-22T08:01:12;99621.13;;;14.78;36.35
71697;BME280;68167;59.120;37.898;2023-04-22T08:03:39;99648.94;;;15.01;36.80
71697;BME280;68167;59.120;37.898;2023-04-22T08:06:05;99657.50;;;15.03;36.62
71697;BME280;68167;59.120;37.898;2023-04-22T08:08:32;99650.31;;;14.99;36.70
71697;BME280;68167;59.120;37.898;2023-04-22T08:10:59;99614.41;;;14.81;37.05
71697;BME280;68167;59.120;37.898;2023-04-22T08:13:25;99649.59;;;15.12;37.13
71697;BME280;68167;59.120;37.898;2023-04-22T08:15:52;99644.75;;;15.14;36.86
71697;BME280;68167;59.120;37.898;2023-04-22T08:18:19;99568.75;;;14.67;36.72
71697;BME280;68167;59.120;37.898;2023-04-22T08:20:46;99614.69;;;14.98;36.79
71697;BME280;68167;59.120;37.898;2023-04-22T08:23:13;99610.69;;;15.14;37.29
71697;BME280;68167;59.120;37.898;2023-04-22T08:25:39;99651.19;;;15.51;36.66
71697;BME280;68167;59.120;37.898;2023-04-22T08:28:06;99642.97;;;15.61;36.34
71697;BME280;68167;59.120;37.898;2023-04-22T08:30:33;99624.69;;;15.63;36.19
71697;BME280;68167;59.120;37.898;2023-04-22T08:32:59;99617.28;;;15.60;35.95
71697;BME280;68167;59.120;37.898;2023-04-22T08:35:26;99635.06;;;15.69;36.03
71697;BME280;68167;59.120;37.898;2023-04-22T08:37:53;99621.13;;;15.67;36.04
71697;BME280;68167;59.120;37.898;2023-04-22T08:40:19;99606.53;;;15.60;35.98
71697;BME280;68167;59.120;37.898;2023-04-22T08:42:47;99590.88;;;15.48;35.58
71697;BME280;68167;59.120;37.898;2023-04-22T08:45:13;99553.00;;;15.17;35.77
71697;BME280;68167;59.120;37.898;2023-04-22T08:47:41;99575.84;;;15.47;35.61
71697;BME280;68167;59.120;37.898;2023-04-22T08:50:08;99614.50;;;15.78;35.35
71697;BME280;68167;59.120;37.898;2023-04-22T08:52:34;99611.19;;;15.68;35.29
71697;BME280;68167;59.120;37.898;2023-04-22T08:55:01;99508.66;;;14.92;34.89
71697;BME280;68167;59.120;37.898;2023-04-22T08:57:31;99612.59;;;15.65;35.33
71697;BME280;68167;59.120;37.898;2023-04-22T08:59:59;99599.66;;;15.67;35.45
71697;BME280;68167;59.120;37.898;2023-04-22T09:02:27;99585.97;;;15.69;34.82
71697;BME280;68167;59.120;37.898;2023-04-22T09:04:55;99603.91;;;15.87;34.42
71697;BME280;68167;59.120;37.898;2023-04-22T09:07:25;99553.53;;;15.65;34.34
71697;BME280;68167;59.120;37.898;2023-04-22T09:09:54;99567.69;;;15.71;33.97
71697;BME280;68167;59.120;37.898;2023-04-22T09:12:22;99592.34;;;15.87;34.35
71697;BME280;68167;59.120;37.898;2023-04-22T09:14:48;99597.09;;;15.76;34.02
71697;BME280;68167;59.120;37.898;2023-04-22T09:17:16;99612.31;;;15.80;34.07
71697;BME280;68167;59.120;37.898;2023-04-22T09:19:44;99621.75;;;15.78;34.34
71697;BME280;68167;59.120;37.898;2023-04-22T09:22:12;99609.81;;;15.70;34.40
71697;BME280;68167;59.120;37.898;2023-04-22T09:24:42;99599.88;;;15.57;34.18
71697;BME280;68167;59.120;37.898;2023-04-22T09:27:09;99553.09;;;15.44;34.39
71697;BME280;68167;59.120;37.898;2023-04-22T09:29:36;99565.97;;;15.61;34.52
71697;BME280;68167;59.120;37.898;2023-04-22T09:32:09;99604.09;;;15.91;34.39
71697;BME280;68167;59.120;37.898;2023-04-22T09:34:50;99610.75;;;15.93;33.95
71697;BME280;68167;59.120;37.898;2023-04-22T09:37:27;99601.81;;;15.98;34.15
71697;BME280;68167;59.120;37.898;2023-04-22T09:39:53;99611.56;;;15.94;33.78
71697;BME280;68167;59.120;37.898;2023-04-22T09:42:20;99602.88;;;15.83;33.93
71697;BME280;68167;59.120;37.898;2023-04-22T09:44:51;99575.31;;;15.64;33.49
71697;BME280;68167;59.120;37.898;2023-04-22T09:47:21;99563.16;;;15.53;33.37
71697;BME280;68167;59.120;37.898;2023-04-22T09:49:51;99587.13;;;15.63;33.56
71697;BME280;68167;59.120;37.898;2023-04-22T09:52:24;99576.78;;;15.56;33.65
71697;BME280;68167;59.120;37.898;2023-04-22T09:54:53;99596.56;;;15.60;33.26
71697;BME280;68167;59.120;37.898;2023-04-22T09:57:20;99584.69;;;15.47;33.52
71697;BME280;68167;59.120;37.898;2023-04-22T09:59:49;99539.06;;;15.34;33.23
71697;BME280;68167;59.120;37.898;2023-04-22T10:02:17;99573.94;;;15.66;33.22
71697;BME280;68167;59.120;37.898;2023-04-22T10:04:44;99533.75;;;15.61;33.52
71697;BME280;68167;59.120;37.898;2023-04-22T10:07:13;99571.50;;;15.97;32.35
71697;BME280;68167;59.120;37.898;2023-04-22T10:09:40;99553.69;;;16.01;32.57
71697;BME280;68167;59.120;37.898;2023-04-22T10:12:07;99542.75;;;16.11;32.12
71697;BME280;68167;59.120;37.898;2023-04-22T10:14:33;99587.19;;;16.45;31.61
71697;BME280;68167;59.120;37.898;2023-04-22T10:17:00;99577.63;;;16.53;31.82
71697;BME280;68167;59.120;37.898;2023-04-22T10:19:29;99581.13;;;16.67;31.30
71697;BME280;68167;59.120;37.898;2023-04-22T10:21:59;99570.69;;;16.65;30.69
71697;BME280;68167;59.120;37.898;2023-04-22T10:24:27;99536.53;;;16.52;30.84
71697;BME280;68167;59.120;37.898;2023-04-22T10:26:59;99536.72;;;16.69;30.45
71697;BME280;68167;59.120;37.898;2023-04-22T10:29:35;99558.06;;;16.88;30.51
71697;BME280;68167;59.120;37.898;2023-04-22T10:34:36;99526.66;;;16.97;29.54
71697;BME280;68167;59.120;37.898;2023-04-22T10:39:32;99542.56;;;17.61;29.03
71697;BME280;68167;59.120;37.898;2023-04-22T10:44:46;99572.94;;;18.15;28.62
71697;BME280;68167;59.120;37.898;2023-04-22T10:47:33;99510.78;;;18.02;28.17
71697;BME280;68167;59.120;37.898;2023-04-22T10:50:11;99563.94;;;18.36;27.64
71697;BME280;68167;59.120;37.898;2023-04-22T10:52:39;99568.91;;;18.52;27.23
71697;BME280;68167;59.120;37.898;2023-04-22T10:55:06;99521.75;;;18.32;26.96
71697;BME280;68167;59.120;37.898;2023-04-22T10:57:37;99524.19;;;18.51;26.97
71697;BME280;68167;59.120;37.898;2023-04-22T11:00:22;99563.25;;;18.96;26.88
71697;BME280;68167;59.120;37.898;2023-04-22T11:03:06;99556.72;;;19.15;25.67
71697;BME280;68167;59.120;37.898;2023-04-22T11:05:33;99476.00;;;18.75;26.06
71697;BME280;68167;59.120;37.898;2023-04-22T11:08:03;99544.47;;;19.52;25.40
71697;BME280;68167;59.120;37.898;2023-04-22T11:10:38;99537.13;;;19.61;25.01
71697;BME280;68167;59.120;37.898;2023-04-22T11:13:14;99512.66;;;19.57;25.13
71697;BME280;68167;59.120;37.898;2023-04-22T11:15:42;99554.78;;;20.05;24.80
71697;BME280;68167;59.120;37.898;2023-04-22T11:18:13;99543.84;;;20.22;24.20
71697;BME280;68167;59.120;37.898;2023-04-22T11:20:40;99546.31;;;20.45;24.33
71697;BME280;68167;59.120;37.898;2023-04-22T11:23:07;99544.81;;;20.56;24.27
71697;BME280;68167;59.120;37.898;2023-04-22T11:25:34;99530.88;;;20.36;24.12
71697;BME280;68167;59.120;37.898;2023-04-22T11:28:01;99539.34;;;20.64;24.15
71697;BME280;68167;59.120;37.898;2023-04-22T11:30:29;99524.28;;;20.76;23.78
71697;BME280;68167;59.120;37.898;2023-04-22T11:32:58;99498.97;;;20.30;23.61
71697;BME280;68167;59.120;37.898;2023-04-22T11:35:30;99515.34;;;20.04;23.74
71697;BME280;68167;59.120;37.898;2023-04-22T11:38:00;99410.09;;;18.93;24.30
71697;BME280;68167;59.120;37.898;2023-04-22T11:40:32;99499.56;;;19.21;24.56
71697;BME280;68167;59.120;37.898;2023-04-22T11:43:01;99539.75;;;19.23;24.55
71697;BME280;68167;59.120;37.898;2023-04-22T11:45:29;99542.13;;;18.90;24.93
71697;BME280;68167;59.120;37.898;2023-04-22T11:47:57;99459.47;;;18.51;25.48
71697;BME280;68167;59.120;37.898;2023-04-22T11:50:26;99485.16;;;19.00;25.27
71697;BME280;68167;59.120;37.898;2023-04-22T11:53:00;99508.59;;;19.34;25.33
71697;BME280;68167;59.120;37.898;2023-04-22T11:55:29;99522.41;;;19.41;24.74
71697;BME280;68167;59.120;37.898;2023-04-22T11:58:06;99519.75;;;19.15;25.72
71697;BME280;68167;59.120;37.898;2023-04-22T12:03:14;99519.59;;;19.03;25.41
71697;BME280;68167;59.120;37.898;2023-04-22T12:05:43;99507.97;;;19.28;25.04
71697;BME280;68167;59.120;37.898;2023-04-22T12:08:13;99511.16;;;19.30;25.63
71697;BME280;68167;59.120;37.898;2023-04-22T12:10:45;99495.69;;;19.48;24.84
71697;BME280;68167;59.120;37.898;2023-04-22T12:13:23;99501.81;;;19.74;25.10
71697;BME280;68167;59.120;37.898;2023-04-22T12:16:02;99495.03;;;19.98;24.96
71697;BME280;68167;59.120;37.898;2023-04-22T12:18:51;99496.53;;;19.87;25.04
71697;BME280;68167;59.120;37.898;2023-04-22T12:21:23;99434.19;;;19.16;24.50
71697;BME280;68167;59.120;37.898;2023-04-22T12:23:54;99489.78;;;19.63;24.51
71697;BME280;68167;59.120;37.898;2023-04-22T12:26:22;99439.38;;;19.29;24.96
71697;BME280;68167;59.120;37.898;2023-04-22T12:28:53;99474.81;;;19.74;25.12
71697;BME280;68167;59.120;37.898;2023-04-22T12:31:19;99476.63;;;19.91;24.88
71697;BME280;68167;59.120;37.898;2023-04-22T12:33:46;99476.53;;;19.79;24.62
71697;BME280;68167;59.120;37.898;2023-04-22T12:36:13;99476.84;;;19.78;25.45
71697;BME280;68167;59.120;37.898;2023-04-22T12:38:39;99460.94;;;19.85;25.23
71697;BME280;68167;59.120;37.898;2023-04-22T12:41:06;99455.50;;;19.55;24.73
71697;BME280;68167;59.120;37.898;2023-04-22T12:43:33;99468.31;;;19.67;25.00
71697;BME280;68167;59.120;37.898;2023-04-22T12:46:05;99435.91;;;20.17;24.94
71697;BME280;68167;59.120;37.898;2023-04-22T12:48:33;99436.88;;;20.42;24.32
71697;BME280;68167;59.120;37.898;2023-04-22T12:51:03;99448.03;;;20.61;24.33
71697;BME280;68167;59.120;37.898;2023-04-22T12:53:30;99426.88;;;20.34;24.47
71697;BME280;68167;59.120;37.898;2023-04-22T12:55:57;99436.50;;;20.23;24.45
71697;BME280;68167;59.120;37.898;2023-04-22T12:58:25;99409.69;;;19.97;23.92
71697;BME280;68167;59.120;37.898;2023-04-22T13:00:51;99373.97;;;19.91;24.55
71697;BME280;68167;59.120;37.898;2023-04-22T13:03:18;99402.09;;;20.32;24.11
71697;BME280;68167;59.120;37.898;2023-04-22T13:05:44;99447.47;;;21.01;23.93
71697;BME280;68167;59.120;37.898;2023-04-22T13:08:11;99440.78;;;20.86;23.59
71697;BME280;68167;59.120;37.898;2023-04-22T13:10:38;99452.72;;;20.52;23.45
71697;BME280;68167;59.120;37.898;2023-04-22T13:13:04;99408.97;;;20.09;23.50